Tiempo atmosférico en la estación meteorológica de Tenerife Sur Aeropuerto, Santa Cruz de Tenerife (64 m.)



Fecha
DESCASC
Temp. máxima en grados centígrados (hora)
DESCASC
Temp. mínima en grados centígrados (hora)
DESCASC
Temp. media en grados centígrados
DESCASC
Racha de viento máxima en m/sg (hora)
DESCASC
Velocidad máxima media en intervalos de 10 minutos(hora)
DESCASC
Precipitaciones diarias en mm
DESCASC
Precipitaciones de 00:00 a 06:00 en mm
DESCASC
Precipitaciones de 06:00 a 12:00 en mm
DESCASC
Precipitaciones de 12:00 a 18:00 en mm
DESCASC
Precipitaciones de 18:00 a 24:00 en mm
DESCASC
22-04-2019 25 (18:00) 16.5 (03:10) 20.8 9.72 (19:30) 7.5 (19:30) 0 0 0 0 0
21-04-2019 22.3 (17:50) 15.4 (07:20) 18.8 8.33 (07:30) 4.72 (09:20) 0 0 0 0 0
20-04-2019 21.3 (15:00) 15.6 (01:30) 18.4 9.72 (15:10) 7.22 (15:20) 0 0 0 0 0
19-04-2019 22.6 (12:30) 16.2 (07:20) 19.4 14.44 (11:20) 10.28 (12:50) 0 0 0 0 0
18-04-2019 23.4 (12:50) 16.5 (00:00) 19.9 14.44 (14:30) 10.28 (15:00) 0 0 0 0 0
17-04-2019 22.6 (11:30) 14.9 (00:00) 18.8 7.22 (06:40) 5.28 (16:30) 0 0 0 0 0
16-04-2019 22.9 (16:00) 15.5 (00:00) 19.2 11.67 (19:40) 8.61 (19:40) 0 0 0 0 0
15-04-2019 24.4 (16:20) 15.5 (00:00) 19.9 13.33 (12:50) 10.28 (13:50) 0 0 0 0 0
14-04-2019 23.3 (16:00) 14.8 (00:00) 19 10.28 (05:10) 6.67 (05:00) 0 0 0 0 0
13-04-2019 23.9 (14:40) 16.4 (00:00) 20.1 15.28 (14:10) 11.39 (09:20) 0 0 0 0 0
12-04-2019 23.3 (15:00) 14.8 (00:00) 19 15.28 (12:20) 11.11 (13:50) 0 0 0 0 0
11-04-2019 23 (15:00) 15.5 (00:00) 19.3 16.39 (13:00) 12.22 (14:40) 0 0 0 0 0
10-04-2019 23.1 (16:20) 15.9 (00:00) 19.5 15.28 (14:30) 11.94 (15:10) 0 0 0 0 0
09-04-2019 22.9 (14:40) 13.5 (00:00) 18.2 13.33 (19:30) 10 (18:40) 0 0 0 0 0
08-04-2019 21.8 (15:10) 15.8 (00:00) 18.8 8.33 (15:10) 5.83 (17:00) 0 0 0 0 0
07-04-2019 23.2 (17:10) 13.7 (00:00) 18.5 9.17 (18:50) 7.22 (20:00) 0 0 0 0 0
06-04-2019 22.9 (14:40) 15.9 (00:00) 19.4 9.17 (16:50) 6.11 (13:10) 0 0 0 0 0
05-04-2019 22.8 (14:40) 15.1 (00:00) 18.9 9.17 (11:40) 5.83 (12:00) 0 0 0 0 0
04-04-2019 22.2 (16:00) 12.5 (00:00) 17.4 7.78 (14:20) 5.83 (22:50) 0 0 0 0 0
03-04-2019 24 (13:40) 13 (08:00) 18.5 11.67 (13:10) 8.33 (13:10) 0 0 0 0 0
02-04-2019 20.6 (16:50) 14.5 (00:00) 17.6 8.89 (22:50) 5.83 (11:30) 26.9 14.3 12.6 0 0
01-04-2019 22.6 (14:40) 15 (00:00) 18.8 7.78 (06:30) 5 (12:00) 0.7 0 0 0 0.7
31-03-2019 22.6 (13:50) 13.2 (00:00) 17.9 8.33 (08:40) 5 (12:00) -- 0 0 0 --
30-03-2019 21.1 (11:30) 13.8 (00:00) 17.5 7.78 (20:30) 5 (11:10) 0.2 0 0 0.2 0
29-03-2019 23.8 (15:30) 14.6 (00:00) 19.2 13.89 (17:50) 10 (17:50) 0 0 0 0 0
28-03-2019 22.5 (12:50) 15.8 (00:00) 19.2 8.89 (12:40) 5.83 (11:40) 0 0 0 0 0
27-03-2019 22.9 (14:00) 14.8 (00:00) 18.8 8.33 (06:10) 5.28 (13:30) 0 0 0 0 0
26-03-2019 22.1 (14:20) 12.4 (00:00) 17.3 9.17 (05:40) 4.44 (07:00) 0 0 0 0 0
25-03-2019 19.1 (15:10) 14.1 (00:00) 16.6 8.89 (11:20) 5.56 (16:50) 10.1 0 6.7 3.4 0

Gráficas

Temp. máximas Temp. mínimas Temp. medias Precipitaciones Rachas de viento máximas Velocidades máximas media en intervalos de 10 minutos

Datos horarios

Fecha y hora oficial Temperatura (ºC) Velocidad del viento (km/h) Dirección del viento Racha (km/h) Dirección de racha Precipitación (mm) Presión (hPa) Tendencia (hPa) Humedad (%)
2019-04-23 23:00:00 19.1 14 Noroeste 18 Noroeste 0 1007.5 1.8 67
2019-04-23 22:00:00 18.9 12 Sudoeste 22 Sudoeste 0 1006.8 1.4 69
2019-04-23 21:00:00 19.8 12 Sur 22 Sudeste 0 1006.2 1.1 64
2019-04-23 20:00:00 20.2 14 Sudeste 21 Sur 0 1005.7 0.9 63
2019-04-23 19:00:00 20.5 16 Sudeste 32 Este 0 1005.4 0.4 65
2019-04-23 18:00:00 22.4 18 Este 33 Este 0 1005.1 -0.3 63
2019-04-23 17:00:00 22.9 21 Este 33 Nordeste 0 1004.8 -1.1 62
2019-04-23 16:00:00 23.6 18 Sudeste 32 Sur 0 1005 -1.3 60
2019-04-23 15:00:00 22.8 20 Sur 35 Sudoeste 0 1005.4 -0.8 66
2019-04-23 14:00:00 22.7 26 Sudoeste 35 Sudoeste 0 1005.9 -0.1 60
2019-04-23 13:00:00 22.2 17 Sudoeste 28 Sudoeste 0 1006.3 0.7 63
2019-04-23 12:00:00 22.4 14 Sur 22 Sudoeste 0 1006.2 1.4 59
2019-04-23 11:00:00 20.5 14 Sur 24 Sudeste 0 1006 1.8 68
2019-04-23 10:00:00 20 12 Sudeste 26 Este 0 1005.6 1.9 68
2019-04-23 09:00:00 18.9 17 Este 26 Este 0 1004.8 1.2 74
2019-04-23 08:00:00 17.8 14 Nordeste 18 Nordeste 0 1004.2 0.3 79
2019-04-23 07:00:00 18.3 10 Este 22 Sudeste 0 1003.7 -0.6 76
2019-04-23 06:00:00 18.5 17 Sudoeste 32 Oeste 0 1003.6 -1.4 76
2019-04-23 05:00:00 18.3 14 Sudoeste 30 Oeste 0 1003.9 -1.5 77
2019-04-23 04:00:00 18.3 10 Sudoeste 21 Oeste 0 1004.3 -1.3 78
2019-04-23 03:00:00 18.6 12 Sudoeste 17 Sudoeste 0 1005 -0.6 77
2019-04-23 02:00:00 18.4 5 Oeste 11 Noroeste 0 1005.4 -0.4 80
2019-04-23 01:00:00 17.5 6 Noroeste 24 Norte 0 1005.6 0.6 79
2019-04-23 00:00:00 18 5 Norte 15 Norte 0 1005.6 0.8 77
2019-04-22 23:00:00 18.2 0 Calma 8 Norte 0 1005.8 1.5 77
2019-04-22 22:00:00 18.7 6 Este 22 Este 0 1005 0.5 78
2019-04-22 21:00:00 19.3 19 Nordeste 32 Nordeste 0 1004.8 0.7 75
2019-04-22 20:00:00 21 24 Nordeste 35 Este 0 1004.3 -0.3 67
2019-04-22 19:00:00 23.1 20 Este 30 Este 0 1004.5 -0.8 57
2019-04-22 18:00:00 24.9 16 Sur 24 Sudoeste 0 1004.1 -1.9 52
2019-04-22 17:00:00 23.6 9 Sur 26 Sudoeste 0 1004.6 -1.8 56
2019-04-22 16:00:00 22.4 17 Sudoeste 32 Sur 0 1005.3 -1.3 59
2019-04-22 15:00:00 22.8 23 Sur 30 Sudoeste 0 1006 -0.9 60
2019-04-22 14:00:00 22.6 17 Sudoeste 30 Sudoeste 0 1006.4 -0.4 61
2019-04-22 13:00:00 22.5 17 Sur 28 Sudoeste 0 1006.6 0.1 61
2019-04-22 12:00:00 21.4 17 Sur 26 Sur 0 1006.9 0.5 66
2019-04-22 11:00:00 21.4 13 Sudeste 21 Sudeste 0 1006.8 1.1 63
2019-04-22 10:00:00 19.8 5 Sur 11 Sur 0 1006.5 1.2 68
2019-04-22 09:00:00 18.7 3 Noroeste 11 Noroeste 0 1006.4 0.9 73
2019-04-22 08:00:00 17.2 7 Noroeste 24 Noroeste 0 1005.7 0.2 77
2019-04-22 07:00:00 17.4 8 Noroeste 26 Noroeste 0 1005.3 -0.7 76
2019-04-22 06:00:00 17.5 8 Noroeste 11 Norte 0 1005.5 -0.9 77
2019-04-22 05:00:00 17.8 8 Oeste 15 Oeste 0 1005.5 -1.8 79
2019-04-22 04:00:00 16.7 9 Noroeste 13 Noroeste 0 1006 -1.4 81
2019-04-22 03:00:00 16.9 9 Noroeste 15 Noroeste 0 1006.4 -1.5 79
2019-04-22 02:00:00 17 13 Noroeste 15 Noroeste 0 1007.3 -0.7 76
2019-04-22 01:00:00 17.2 13 Noroeste 22 Noroeste 0 1007.4 -0.2 75
2019-04-22 00:00:00 17.9 12 Noroeste 24 Norte 0 1007.9 0.9 71
2019-04-21 23:00:00 18.9 5 Noroeste 15 Este 0 1008 1.4 73
2019-04-21 22:00:00 18.8 5 Este 11 Este 0 1007.6 1 73
2019-04-21 21:00:00 19.2 5 Sudoeste 11 Sudoeste 0 1007 0.3 70
2019-04-21 20:00:00 19.8 6 Sur 18 Sudeste 0 1006.6 -0.4 67
2019-04-21 19:00:00 20.5 14 Sudeste 22 Sudeste 0 1006.6 -0.7 69
2019-04-21 18:00:00 22 12 Sur 21 Sur 0 1006.7 -0.9 57
2019-04-21 17:00:00 21.7 10 Sudoeste 18 Sudoeste 0 1007 -0.7 56
2019-04-21 16:00:00 22.1 10 Sudoeste 18 Sudeste 0 1007.3 -0.9 50
2019-04-21 15:00:00 21.3 11 Sudeste 21 Sudeste 0 1007.6 -1 56
2019-04-21 14:00:00 21.8 6 Este 22 Sudeste 0 1007.7 -0.4 54
2019-04-21 13:00:00 20.8 15 Sudeste 22 Sudeste 0 1008.2 0.5 63
2019-04-21 12:00:00 20.7 14 Sudeste 22 Este 0 1008.6 1.5 59
2019-04-21 11:00:00 21.3 16 Sudoeste 22 Sur 0 1008.1 1.5 60
2019-04-21 10:00:00 20.8 13 Oeste 24 Oeste 0 1007.7 1.5 61
2019-04-21 09:00:00 18.8 12 Oeste 24 Noroeste 0 1007.1 1 67
2019-04-21 08:00:00 15.8 12 Noroeste 30 Noroeste 0 1006.6 0.4 69
2019-04-21 07:00:00 16 12 Noroeste 26 Noroeste 0 1006.2 -0.3 63
2019-04-21 06:00:00 17.3 7 Sudoeste 11 Nordeste 0 1006.1 -1 65
2019-04-21 05:00:00 17.5 8 Norte 17 Noroeste 0 1006.2 -1.6 60
2019-04-21 04:00:00 17.8 10 Norte 13 Norte 0 1006.5 -1.9 65
2019-04-21 03:00:00 18.3 5 Sudeste 13 Este 0 1007.1 -1.3 69
2019-04-21 02:00:00 18.3 6 Norte -- -- -- 1007.8 -0.6 69
2019-04-21 01:00:00 18.5 12 Oeste 21 Oeste 0 1008.4 0.3 69
2019-04-21 00:00:00 18.4 15 Oeste 24 Oeste 0 1008.4 0.9 69
2019-04-20 23:00:00 18.8 15 Oeste 21 Oeste 0 1008.4 1.2 65
2019-04-20 22:00:00 19.2 10 Oeste 22 Noroeste 0 1008.1 0.9 59
2019-04-20 21:00:00 19.3 15 Oeste 28 Oeste 0 1007.5 0.4 57
2019-04-20 20:00:00 19.3 14 Sur 24 Sur 0 1007.2 -0.1 64
2019-04-20 19:00:00 19.6 9 Este 21 Este 0 1007.2 -0.5 60
2019-04-20 18:00:00 20.2 15 Este 26 Este 0 1007.1 -1 58
2019-04-20 17:00:00 20.6 17 Este 32 Este 0 1007.3 -1.4 53
2019-04-20 16:00:00 20.9 23 Este 35 Este 0 1007.7 -1.2 52
2019-04-20 15:00:00 21.1 21 Este 33 Este 0 1008.1 -1.1 52
2019-04-20 14:00:00 20.7 12 Sudeste 21 Este 0 1008.7 -0.2 54
2019-04-20 13:00:00 19.9 4 Este 21 Este 0 1008.9 0.4 54
2019-04-20 12:00:00 19.3 9 Este 17 Este 0 1009.2 1.3 58
2019-04-20 11:00:00 19.3 10 Sudoeste 18 Sur 0 1008.9 1.6 57
2019-04-20 10:00:00 19.2 9 Sudoeste 17 Sudoeste 0 1008.5 1.5 61
2019-04-20 09:00:00 18.5 11 Oeste 22 Oeste 0 1007.9 0.6 61
2019-04-20 08:00:00 17.5 5 Sudoeste 13 Noroeste 0 1007.3 -0.3 67
2019-04-20 07:00:00 17.2 4 Oeste 15 Norte 0 1007 -1 67
2019-04-20 06:00:00 16.6 10 Nordeste 13 Nordeste 0 1007.3 -1.4 69
2019-04-20 05:00:00 16.6 3 Nordeste 11 Oeste 0 1007.6 -1.5 72
2019-04-20 04:00:00 17.1 8 Oeste 15 Noroeste 0 1008 -1.9 70
2019-04-20 03:00:00 16.1 11 Noroeste 21 Noroeste 0 1008.7 -1.2 72
2019-04-20 02:00:00 16 15 Noroeste -- -- -- 1009.1 -0.9 71
2019-04-20 01:00:00 16.4 5 Norte 24 Norte 0 1009.9 0 66
2019-04-20 00:00:00 16.8 11 Noroeste 18 Noroeste 0 1009.9 0.6 67
2019-04-19 23:00:00 17.8 11 Oeste 30 Oeste 0 1010 0.5 63
2019-04-19 22:00:00 18.3 14 Oeste 22 Oeste 0 1009.9 0.2 61
2019-04-19 21:00:00 18.5 8 Sur 30 Este 0 1009.3 -0.5 61
2019-04-19 20:00:00 19.1 18 Este 30 Este 0 1009.5 -0.3 58
2019-04-19 19:00:00 19.7 22 Este 33 Este 0 1009.7 -0.6 54
2019-04-19 18:00:00 21.3 25 Este 39 Este 0 1009.8 -1.1 54
2019-04-19 17:00:00 21.9 28 Este 42 Este 0 1009.8 -1.3 49
2019-04-19 16:00:00 21.9 33 Este 42 Este 0 1010.3 -1.1 45
2019-04-19 15:00:00 22.2 32 Este 46 Este 0 1010.9 -0.6 47
2019-04-19 14:00:00 22 34 Este 52 Este 0 1011.1 0.3 44
2019-04-19 13:00:00 22.1 36 Este 52 Este 0 1011.4 0.9 44
2019-04-19 12:00:00 22 37 Este 52 Este 0 1011.5 1.4 45
2019-04-19 11:00:00 21.4 34 Este 50 Este 0 1010.8 1.1 46
2019-04-19 10:00:00 20.7 8 Nordeste 13 Nordeste 0 1010.5 1.1 53
2019-04-19 09:00:00 18.7 8 Nordeste 13 Nordeste 0 1010.1 0.8 59
2019-04-19 08:00:00 16.3 6 Norte 18 Norte 0 1009.7 0.5 67
2019-04-19 07:00:00 16.7 6 Norte 11 Norte 0 1009.4 -0.2 66
2019-04-19 06:00:00 16.7 6 Nordeste 13 Nordeste 0 1009.3 -1 66
2019-04-19 05:00:00 16.8 10 Nordeste 18 Nordeste 0 1009.2 -1.7 66
2019-04-19 04:00:00 17.4 10 Nordeste 30 Norte 0 1009.6 -1.7 65
2019-04-19 03:00:00 17.8 12 Nordeste 17 Nordeste 0 1010.3 -1.4 63
2019-04-19 02:00:00 17.9 11 Nordeste -- -- -- 1010.9 -0.7 63
2019-04-19 01:00:00 17.3 8 Nordeste 17 Este 0 1011.3 0 66
2019-04-19 00:00:00 17.9 12 Nordeste 32 Este 0 1011.7 0.9 64
2019-04-18 23:00:00 18.3 24 Este 37 Este 0 1011.6 1.2 64
2019-04-18 22:00:00 18.5 27 Este 42 Este 0 1011.3 1.2 61
2019-04-18 21:00:00 18.8 25 Nordeste 42 Este 0 1010.8 0.7 61
2019-04-18 20:00:00 19.1 30 Este 42 Este 0 1010.4 0.4 61
2019-04-18 19:00:00 19.4 27 Este 41 Este 0 1010.1 -0.1 62
2019-04-18 18:00:00 19.8 31 Este 45 Este 0 1010.1 -0.2 60
2019-04-18 17:00:00 20.7 32 Este 46 Este 0 1010 -0.5 58
2019-04-18 16:00:00 21.4 34 Este 46 Este 0 1010.2 -0.4 55
2019-04-18 15:00:00 23 37 Este 52 Este 0 1010.3 -0.3 50
2019-04-18 14:00:00 23 35 Este 48 Este 0 1010.5 0 49
2019-04-18 13:00:00 23 33 Este 46 Este 0 1010.6 0.3 46
2019-04-18 12:00:00 21.5 25 Este 35 Este 0 1010.6 0.9 51
2019-04-18 11:00:00 21.1 20 Este 37 Nordeste 0 1010.5 1.5 52
2019-04-18 10:00:00 19.6 14 Este 18 Este 0 1010.3 1.7 63
2019-04-18 09:00:00 19 5 Nordeste 22 Norte 0 1009.7 1.6 63
2019-04-18 08:00:00 16.6 7 Norte 26 Norte 0 1009 1.1 73
2019-04-18 07:00:00 18.2 4 Noroeste 18 Noroeste 0 1008.6 0.4 68
2019-04-18 06:00:00 17.3 15 Noroeste 26 Noroeste 0 1008.1 -0.7 69
2019-04-18 05:00:00 17 14 Noroeste 18 Noroeste 0 1007.9 -1.3 74
2019-04-18 04:00:00 18.2 5 Noroeste 11 Oeste 0 1008.2 -1.3 72
2019-04-18 03:00:00 17.5 0 Calma 9 Norte 0 1008.8 -0.7 75
2019-04-18 02:00:00 18 7 Norte -- -- -- 1009.2 0.2 74
2019-04-18 01:00:00 19.2 8 Oeste 11 Oeste 0 1009.5 1.2 69
2019-04-18 00:00:00 19.4 10 Noroeste 15 Noroeste 0 1009.5 2 69
2019-04-17 23:00:00 18.9 10 Noroeste 17 Norte 0 1009 1.9 72
2019-04-17 22:00:00 18.9 4 Norte 17 Este 0 1008.3 1.6 71
2019-04-17 21:00:00 19.1 12 Este 18 Este 0 1007.5 1.1 74
2019-04-17 20:00:00 19.6 12 Este 18 Este 0 1007.1 0.8 72
2019-04-17 19:00:00 20.1 15 Este 24 Este 0 1006.7 0.3 70
2019-04-17 18:00:00 21.4 16 Este 24 Este 0 1006.4 -0.2 65
2019-04-17 17:00:00 20.8 16 Este 26 Este 0 1006.3 -0.8 65
2019-04-17 16:00:00 21.4 17 Este 24 Este 0 1006.4 -1 61
2019-04-17 15:00:00 21.3 9 Este 15 Este 0 1006.6 -0.6 60
2019-04-17 14:00:00 21.2 8 Este 15 Sudeste 0 1007.1 0.4 59
2019-04-17 13:00:00 21.3 8 Este 15 Nordeste 0 1007.4 0.9 58
2019-04-17 12:00:00 21.3 7 Sur 21 Sudeste 0 1007.2 1.3 58
2019-04-17 11:00:00 22.3 12 Sudeste 18 Este 0 1006.7 1.3 57
2019-04-17 10:00:00 21 4 Sudeste 13 Norte 0 1006.5 1.5 60
2019-04-17 09:00:00 18.7 2 Nordeste 11 Norte -- 1005.9 1.1 64
2019-04-17 08:00:00 15.2 9 Norte 13 Nordeste 0 1005.4 0.6 75
2019-04-17 07:00:00 15.4 10 Norte 26 Norte 0 1005 -0.1 76
2019-04-17 06:00:00 15.3 12 Norte 15 Norte 0 1004.8 -0.6 78
2019-04-17 05:00:00 15.2 6 Noroeste 9 Noroeste 0 1004.8 -0.9 85
2019-04-17 04:00:00 15.5 8 Norte 11 Noroeste 0 1005.1 -1.3 83
2019-04-17 03:00:00 16.7 0 Calma 9 Norte 0 1005.4 -1.3 79
2019-04-17 02:00:00 17.4 4 Norte -- -- -- 1005.7 -0.9 77
2019-04-17 01:00:00 17.5 8 Noroeste 11 Noroeste 0 1006.4 0.5 76
2019-04-17 00:00:00 19.2 3 Norte 17 Norte 0 1006.7 1.8 72
2019-04-16 23:00:00 19.6 8 Noroeste 24 Nordeste 0 1006.6 2.3 74
2019-04-16 22:00:00 19.7 14 Nordeste 24 Nordeste 0 1005.9 1.4 75
2019-04-16 21:00:00 20.2 17 Nordeste 32 Oeste 0 1004.9 0 73
2019-04-16 20:00:00 21.6 25 Oeste 42 Oeste 0 1004.3 -1.1 60
2019-04-16 19:00:00 22.1 25 Sudoeste 35 Oeste 0 1004.5 -1.9 65
2019-04-16 18:00:00 22.3 27 Sudoeste 37 Sudoeste 0 1004.9 -2.6 66
2019-04-16 17:00:00 22.2 27 Sudoeste 37 Sudoeste 0 1005.4 -2.9 65
2019-04-16 16:00:00 22.7 19 Sudoeste 28 Sudoeste 0 1006.4 -2.5 61
2019-04-16 15:00:00 22.3 14 Sudoeste 22 Sudoeste 0 1007.5 -1.6 60
2019-04-16 14:00:00 21.4 11 Sur 22 Sur -- 1008.3 -0.8 63
2019-04-16 13:00:00 21 12 Sudeste 26 Sudeste 0 1008.9 -0.1 66
2019-04-16 12:00:00 21.6 18 Sudeste 28 Este 0 1009.1 0.4 65
2019-04-16 11:00:00 21.3 17 Este 24 Este 0 1009.1 1.1 68
2019-04-16 10:00:00 20.2 11 Este 22 Norte 0 1009 1.5 71
2019-04-16 09:00:00 17 10 Nordeste 15 Norte 0 1008.7 1.3 76
2019-04-16 08:00:00 16.6 11 Norte 17 Norte 0 1008 0.2 76
2019-04-16 07:00:00 16.6 12 Nordeste 15 Nordeste 0 1007.5 -0.9 74
2019-04-16 06:00:00 15.5 5 Nordeste 13 Norte 0 1007.4 -1.6 74
2019-04-16 05:00:00 16.6 12 Norte 15 Norte 0 1007.8 -1.8 73
2019-04-16 04:00:00 16.5 12 Norte 15 Norte 0 1008.4 -1.8 78
2019-04-16 03:00:00 16.5 8 Norte 30 Norte 0 1009 -1.7 77
2019-04-16 02:00:00 17.1 7 Norte 22 Norte 0 1009.6 -1.1 75
2019-04-16 01:00:00 17.7 9 Norte 17 Norte 0 1010.2 -0.4 78
2019-04-16 00:00:00 18.3 11 Nordeste 18 Nordeste 0 1010.7 0.6 80
2019-04-15 23:00:00 18.9 13 Nordeste 18 Este 0 1010.7 1.2 80
2019-04-15 22:00:00 19.7 12 Nordeste 28 Nordeste 0 1010.6 1.2 74
2019-04-15 21:00:00 19.5 13 Nordeste 28 Norte 0 1010.1 0.7 76
2019-04-15 20:00:00 20.8 18 Nordeste 30 Este 0 1009.5 0.1 70
2019-04-15 19:00:00 21 22 Este 33 Este 0 1009.4 -0.3 69
2019-04-15 18:00:00 21.7 24 Este 37 Este 0 1009.4 -0.8 66
2019-04-15 17:00:00 23 24 Este 39 Este 0 1009.4 -1 60
2019-04-15 16:00:00 23.5 28 Este 41 Este 0 1009.7 -1.3 57
2019-04-15 15:00:00 23.4 33 Este 45 Este 0 1010.2 -0.9 57
2019-04-15 14:00:00 23.4 36 Este 46 Este 0 1010.4 -0.5 55
2019-04-15 13:00:00 22.9 35 Este 48 Este 0 1011 0.7 60
2019-04-15 12:00:00 22.2 28 Este 42 Este 0 1011.1 0.8 60
2019-04-15 11:00:00 22 26 Este 39 Este 0 1010.9 0.9 55
2019-04-15 10:00:00 20.5 11 Este 26 Este 0 1010.3 0.9 65
2019-04-15 09:00:00 19.1 13 Nordeste 17 Nordeste 0 1010.3 1.3 67
2019-04-15 08:00:00 16.5 7 Norte 24 Noroeste 0 1010 1.2 79
2019-04-15 07:00:00 15.9 10 Norte 26 Norte 0 1009.4 0.8 79
2019-04-15 06:00:00 15.8 12 Norte 13 Noroeste 0 1009 0 81
2019-04-15 05:00:00 16.2 10 Noroeste 13 Noroeste 0 1008.8 -0.9 83
2019-04-15 04:00:00 17.2 5 Oeste 9 Noroeste 0 1008.6 -1.3 82
2019-04-15 03:00:00 17.9 4 Sudeste 8 Sudeste 0 1009 -0.7 80
2019-04-15 02:00:00 18.1 6 Oeste 15 Noroeste 0 1009.7 0.3 78
2019-04-15 01:00:00 18.2 7 Oeste 11 Oeste 0 1009.9 1.3 81
2019-04-15 00:00:00 18.8 5 Sur 8 Sudeste 0 1009.7 1.8 74
2019-04-14 23:00:00 18.9 3 Sudoeste 18 Sudeste 0 1009.4 1.9 77
2019-04-14 22:00:00 19.1 9 Sudeste 13 Sudeste 0 1008.6 1.3 75
2019-04-14 21:00:00 18.9 9 Sudeste 22 Este 0 1007.9 0.9 77
2019-04-14 20:00:00 20.1 15 Este 26 Este 0 1007.5 0.8 72
2019-04-14 19:00:00 21.1 18 Este 28 Este 0 1007.3 0.3 68
2019-04-14 18:00:00 21.9 18 Este 28 Este 0 1007 -0.6 64
2019-04-14 17:00:00 22.6 20 Este 30 Este 0 1006.7 -1.3 60
2019-04-14 16:00:00 22.9 19 Este 28 Este 0 1007 -1.3 59
2019-04-14 15:00:00 22.8 17 Este 26 Este 0 1007.6 -1.2 60
2019-04-14 14:00:00 22.2 15 Sudeste 22 Este 0 1008 -0.8 62
2019-04-14 13:00:00 22.3 12 Sudeste 21 Sudeste 0 1008.3 -0.3 60
2019-04-14 12:00:00 21.8 9 Sudeste 18 Sudeste 0 1008.8 0.3 61
2019-04-14 11:00:00 21.1 9 Sudeste 17 Este 0 1008.8 0.5 62
2019-04-14 10:00:00 20.1 6 Sur 15 Sudoeste 0 1008.6 0.8 63
2019-04-14 09:00:00 18.7 9 Nordeste 15 Norte 0 1008.5 1 66
2019-04-14 08:00:00 15.9 13 Norte 26 Norte 0 1008.3 0.8 77
2019-04-14 07:00:00 16.4 9 Norte 26 Norte 0 1007.8 -0.2 70
2019-04-14 06:00:00 15.9 9 Norte 37 Nordeste 0 1007.5 -1.3 74
2019-04-14 05:00:00 16.6 24 Nordeste 35 Nordeste 0 1007.5 -1.9 75
2019-04-14 04:00:00 16.1 13 Norte 18 Nordeste 0 1008 -2.1 71
2019-04-14 03:00:00 16.3 11 Norte 21 Norte 0 1008.8 -1.7 73
2019-04-14 02:00:00 16.9 14 Nordeste 21 Norte 0 1009.4 -1.1 75
2019-04-14 01:00:00 17 12 Nordeste 28 Nordeste 0 1010.1 -0.3 77
2019-04-14 00:00:00 17.4 10 Norte 33 Nordeste 0 1010.5 0.7 76
2019-04-13 23:00:00 18.1 21 Nordeste 37 Nordeste 0 1010.5 0.9 75
2019-04-13 22:00:00 18.3 15 Nordeste 22 Este 0 1010.4 0.9 75
2019-04-13 21:00:00 18.9 19 Nordeste 28 Nordeste 0 1009.8 0.8 72
2019-04-13 20:00:00 20.7 20 Nordeste 28 Este 0 1009.6 0.3 65
2019-04-13 19:00:00 21.6 20 Nordeste 33 Nordeste 0 1009.5 -0.2 59
2019-04-13 18:00:00 22.8 26 Nordeste 42 Nordeste 0 1009 -1.4 56
2019-04-13 17:00:00 22.5 30 Este 42 Este 0 1009.3 -1.4 57
2019-04-13 16:00:00 23.2 29 Este 46 Este 0 1009.7 -1.3 55
2019-04-13 15:00:00 23.5 35 Este 55 Este 0 1010.4 -1.3 49
2019-04-13 14:00:00 23.3 37 Este 54 Este 0 1010.7 -1 50
2019-04-13 13:00:00 23 38 Este 52 Este 0 1011 -0.4 52
2019-04-13 12:00:00 22.4 32 Este 45 Este 0 1011.7 0.9 52
2019-04-13 11:00:00 21.6 24 Nordeste 39 Nordeste 0 1011.7 1.2 51
2019-04-13 10:00:00 20.1 26 Nordeste 54 Nordeste 0 1011.4 1.1 56
2019-04-13 09:00:00 18.8 34 Nordeste 50 Nordeste 0 1010.8 0.8 62
2019-04-13 08:00:00 17.2 27 Nordeste 45 Nordeste 0 1010.5 0.3 69
2019-04-13 07:00:00 17.1 19 Nordeste 37 Este 0 1010.3 -0.3 69
2019-04-13 06:00:00 17.1 22 Nordeste 33 Nordeste 0 1010 -1.1 72
2019-04-13 05:00:00 16.9 18 Nordeste 32 Nordeste 0 1010.2 -1.5 63
2019-04-13 04:00:00 17.1 17 Nordeste 28 Nordeste 0 1010.6 -1.6 65
2019-04-13 03:00:00 16.9 13 Norte 30 Nordeste 0 1011.1 -1.3 65
2019-04-13 02:00:00 17 17 Nordeste 32 Norte 0 1011.7 -0.5 66
2019-04-13 01:00:00 16.8 13 Nordeste 22 Nordeste 0 1012.2 0.4 65
2019-04-13 00:00:00 17.1 12 Nordeste 30 Norte 0 1012.4 1.4 63
2019-04-12 23:00:00 17.6 20 Nordeste 33 Nordeste 0 1012.2 1.6 62
2019-04-12 22:00:00 17.8 19 Nordeste 33 Este 0 1011.8 1.1 62
2019-04-12 21:00:00 18.2 22 Este 46 Este 0 1011 0.4 61
2019-04-12 20:00:00 19.2 25 Este 41 Este 0 1010.6 0 59
2019-04-12 19:00:00 20.2 28 Este 45 Este 0 1010.7 0.3 56
2019-04-12 18:00:00 21.6 33 Este 50 Este 0 1010.6 0 51
2019-04-12 17:00:00 21.9 34 Este 52 Este 0 1010.6 -1.1 50
2019-04-12 16:00:00 22.6 36 Este 50 Este 0 1010.4 -1.4 49
2019-04-12 15:00:00 23.1 37 Este 55 Este 0 1010.6 -1.3 46
2019-04-12 14:00:00 22.7 38 Este 54 Este 0 1011.7 -0.3 50
2019-04-12 13:00:00 22.3 38 Este 55 Este 0 1011.8 -0.1 49
2019-04-12 12:00:00 21.7 37 Este 48 Este 0 1011.9 0.3 46
2019-04-12 11:00:00 21.2 34 Nordeste 48 Este 0 1012 0.8 47
2019-04-12 10:00:00 20 18 Nordeste 32 Nordeste 0 1011.9 1 50
2019-04-12 09:00:00 18.2 18 Nordeste 30 Nordeste 0 1011.6 1.1 59
2019-04-12 08:00:00 14.9 9 Norte 32 Este 0 1011.2 0.5 68
2019-04-12 07:00:00 15.6 8 Nordeste 24 Nordeste 0 1010.9 0.1 63
2019-04-12 06:00:00 15.5 14 Norte 21 Norte 0 1010.5 -0.4 64
2019-04-12 05:00:00 16.6 15 Nordeste 32 Nordeste 0 1010.7 -1.1 60
2019-04-12 04:00:00 16.7 20 Nordeste 30 Nordeste 0 1010.8 -1.7 62
2019-04-12 03:00:00 17.1 19 Nordeste 35 Este 0 1010.9 -1.7 63
2019-04-12 02:00:00 17.3 13 Nordeste 24 Este 0 1011.8 -0.7 61
2019-04-12 01:00:00 17.7 16 Nordeste 33 Este 0 1012.5 0.9 61
2019-04-12 00:00:00 17.7 17 Nordeste 26 Este 0 1012.6 1 64
2019-04-11 23:00:00 17.6 9 Nordeste 28 Norte 0 1012.5 1.5 60
2019-04-11 22:00:00 17.8 12 Nordeste 46 Este 0 1011.6 1 59
2019-04-11 21:00:00 18.3 31 Nordeste 45 Este 0 1011.6 1.2 57
2019-04-11 20:00:00 19.1 30 Este 50 Este 0 1011 0.5 58
2019-04-11 19:00:00 20.6 36 Este 52 Este 0 1010.6 -0.5 54
2019-04-11 18:00:00 21.1 35 Este 55 Este 0 1010.4 -1.2 53
2019-04-11 17:00:00 21.6 35 Este 55 Este 0 1010.5 -1.2 53
2019-04-11 16:00:00 22.2 37 Este 55 Este 0 1011.1 -1.4 49
2019-04-11 15:00:00 22.7 39 Este 58 Este 0 1011.6 -1.1 48
2019-04-11 14:00:00 22.1 41 Este 59 Este 0 1011.7 -1.1 52
2019-04-11 13:00:00 21.8 41 Este 59 Este 0 1012.5 -0.1 46
2019-04-11 12:00:00 21.3 36 Este 54 Este 0 1012.7 0.3 47
2019-04-11 11:00:00 20.9 37 Este 54 Nordeste 0 1012.8 1 46
2019-04-11 10:00:00 19.6 35 Nordeste 52 Nordeste 0 1012.6 1.4 49
2019-04-11 09:00:00 17.9 26 Nordeste 41 Nordeste 0 1012.4 1.4 56
2019-04-11 08:00:00 16.1 21 Nordeste 30 Nordeste 0 1011.8 0.7 61
2019-04-11 07:00:00 16 14 Norte 24 Norte 0 1011.2 -0.2 61
2019-04-11 06:00:00 15.7 13 Norte 24 Nordeste 0 1011 -0.9 60
2019-04-11 05:00:00 15.8 16 Nordeste 26 Norte 0 1011.1 -1.3 62
2019-04-11 04:00:00 16.1 15 Norte 30 Nordeste 0 1011.4 -1.3 62
2019-04-11 03:00:00 16.2 20 Nordeste 30 Nordeste 0 1011.9 -0.9 62
2019-04-11 02:00:00 16.2 18 Nordeste 32 Nordeste 0 1012.4 -0.3 63
2019-04-11 01:00:00 16.5 19 Nordeste 32 Nordeste 0 1012.7 0.4 65
2019-04-11 00:00:00 17 20 Nordeste 41 Nordeste 0 1012.8 1 61
2019-04-10 23:00:00 17.6 28 Nordeste 42 Este 0 1012.7 1.4 58
2019-04-10 22:00:00 17.9 24 Nordeste 39 Este 0 1012.3 1.5 59
2019-04-10 21:00:00 18.3 24 Nordeste 45 Este 0 1011.8 1.2 58
2019-04-10 20:00:00 19.1 35 Este 52 Este 0 1011.3 0.5 59
2019-04-10 19:00:00 20.6 36 Este 48 Este 0 1010.8 -0.3 57
2019-04-10 18:00:00 21.7 32 Este 50 Este 0 1010.6 -0.9 49
2019-04-10 17:00:00 22.2 34 Este 50 Nordeste 0 1010.8 -0.9 47
2019-04-10 16:00:00 22.4 35 Este 52 Este 0 1011.1 -1.1 43
2019-04-10 15:00:00 22.6 38 Este 55 Este 0 1011.5 -0.9 42
2019-04-10 14:00:00 22.6 37 Este 52 Este 0 1011.7 -0.6 44
2019-04-10 13:00:00 22.2 34 Este 50 Este 0 1012.2 0.2 45
2019-04-10 12:00:00 21.2 34 Este 52 Este 0 1012.4 0.8 48
2019-04-10 11:00:00 20.3 37 Este 52 Este 0 1012.3 1.1 55
2019-04-10 10:00:00 19.2 28 Nordeste 37 Nordeste 0 1012 1 59
2019-04-10 09:00:00 17.8 22 Nordeste 30 Nordeste 0 1011.6 0.9 57
2019-04-10 08:00:00 16 18 Nordeste 32 Nordeste 0 1011.2 0.5 62
2019-04-10 07:00:00 16.1 19 Nordeste 32 Nordeste 0 1011 0.3 62
2019-04-10 06:00:00 16.4 22 Nordeste 41 Nordeste 0 1010.7 -0.4 62
2019-04-10 05:00:00 16.3 26 Nordeste 33 Nordeste 0 1010.7 -0.6 61
2019-04-10 04:00:00 15.9 19 Nordeste 32 Nordeste 0 1010.7 -1 65
2019-04-10 03:00:00 16 14 Norte 33 Norte 0 1011.1 -0.9 65
2019-04-10 02:00:00 16.3 19 Norte 28 Nordeste 0 1011.3 -0.6 66
2019-04-10 01:00:00 16.5 13 Norte 30 Nordeste 0 1011.7 0.1 66
2019-04-10 00:00:00 17.1 22 Nordeste 33 Este 0 1012 0.9 65
2019-04-09 23:00:00 17.4 19 Nordeste 35 Este 0 1011.9 1.3 67
2019-04-09 22:00:00 17.6 26 Este 37 Este 0 1011.6 1.2 70
2019-04-09 21:00:00 18 23 Nordeste 35 Nordeste 0 1011.1 0.6 70
2019-04-09 20:00:00 19.1 29 Nordeste 48 Este 0 1010.6 -0.2 66
2019-04-09 19:00:00 20.1 33 Nordeste 46 Este 0 1010.4 -0.7 63
2019-04-09 18:00:00 20.1 31 Este 45 Este 0 1010.5 -1.4 63
2019-04-09 17:00:00 21 33 Este 45 Este 0 1010.8 -1.4 61
2019-04-09 16:00:00 22.1 31 Este 42 Este 0 1011.1 -1.3 58
2019-04-09 15:00:00 21.8 28 Nordeste 41 Este 0 1011.9 -0.8 62
2019-04-09 14:00:00 21.1 28 Este 45 Este 0 1012.2 -0.4 67
2019-04-09 13:00:00 22 28 Este 42 Este 0 1012.4 -0.2 64
2019-04-09 12:00:00 21.1 21 Este 32 Este 0 1012.7 0.1 68
2019-04-09 11:00:00 20.7 18 Este 28 Este 0 1012.6 0.3 65
2019-04-09 10:00:00 19.3 11 Este 17 Este 0 1012.6 0.8 60
2019-04-09 09:00:00 15.9 9 Norte 17 Norte 0 1012.6 0.9 70
2019-04-09 08:00:00 14.4 13 Norte 15 Norte 0 1012.3 0.6 74
2019-04-09 07:00:00 14 13 Norte 28 Norte 0 1011.8 -0.1 73
2019-04-09 06:00:00 14.5 14 Norte 18 Norte 0 1011.7 -0.4 67
2019-04-09 05:00:00 13.8 10 Norte 13 Norte 0 1011.7 -0.6 76
2019-04-09 04:00:00 13.9 8 Norte 13 Norte 0 1011.9 -1 76
2019-04-09 03:00:00 14.6 11 Norte 13 Norte 0 1012.1 -0.9 73
2019-04-09 02:00:00 14.7 9 Norte 22 Este 0 1012.3 -0.7 73
2019-04-09 01:00:00 16.3 10 Norte 18 Nordeste 0 1012.9 0.2 67
2019-04-09 00:00:00 16.5 15 Nordeste 24 Nordeste 0 1013 0.8 67
2019-04-08 23:00:00 17.5 16 Nordeste 22 Nordeste 0 1013 1.1 62
2019-04-08 22:00:00 17.6 14 Nordeste 28 Nordeste 0 1012.7 0.9 67
2019-04-08 21:00:00 18.7 17 Este 28 Este 0 1012.2 0.6 65
2019-04-08 20:00:00 19.2 19 Este 28 Nordeste 0 1011.9 0.2 61
2019-04-08 19:00:00 20 16 Este 24 Este 0 1011.8 -0.5 59
2019-04-08 18:00:00 19.8 15 Este 28 Este 0 1011.6 -1 59
2019-04-08 17:00:00 20.4 21 Este 30 Este 0 1011.7 -1.6 59
2019-04-08 16:00:00 20.8 17 Este 30 Este 0 1012.3 -1.4 61
2019-04-08 15:00:00 21.2 17 Este 26 Este 0 1012.6 -1.2 55
2019-04-08 14:00:00 20.5 8 Sur 18 Este 0 1013.3 -0.5 60
2019-04-08 13:00:00 20 12 Este 18 Este 0 1013.7 0.1 63
2019-04-08 12:00:00 20.8 13 Sur 18 Sur 0 1013.8 0.8 57
2019-04-08 11:00:00 20.6 12 Sudoeste 21 Sudoeste 0 1013.8 1.2 59
2019-04-08 10:00:00 19.6 7 Oeste 21 Norte 0 1013.6 1.3 65
2019-04-08 09:00:00 17.8 5 Noroeste 9 Norte 0 1013 1 73
2019-04-08 08:00:00 16.8 -- -- -- -- 0 1012.6 0.2 75
2019-04-08 07:00:00 17 2 Norte 26 Norte 0 1012.3 -0.2 73
2019-04-08 06:00:00 17.2 5 Norte 24 Norte 0 1012 -0.8 70
2019-04-08 05:00:00 17 5 Norte 13 Noroeste 0 1012.4 -1 68
2019-04-08 04:00:00 16.3 10 Noroeste 13 Noroeste 0 1012.5 -1.1 75
2019-04-08 03:00:00 15.9 9 Norte 13 Norte 0 1012.8 -1 74
2019-04-08 02:00:00 16.2 10 Norte -- -- -- 1013.4 -0.1 75
2019-04-08 01:00:00 17 9 Norte 13 Norte 0 1013.6 0.6 74
2019-04-08 00:00:00 17.7 10 Este 18 Nordeste 0 1013.8 1.2 71
2019-04-07 23:00:00 18.7 15 Nordeste 28 Norte 0 1013.5 1.1 68
2019-04-07 22:00:00 18.8 14 Norte 33 Noroeste 0 1013 0.9 66
2019-04-07 21:00:00 19.7 13 Noroeste 33 Oeste 0 1012.6 0.6 59
2019-04-07 20:00:00 20 26 Oeste 33 Sudoeste 0 1012.4 0.4 55
2019-04-07 19:00:00 21.4 22 Sudoeste 33 Sudoeste 0 1012.1 -0.4 52
2019-04-07 18:00:00 22.5 23 Sudoeste 32 Sur 0 1012 -1.4 48
2019-04-07 17:00:00 22.5 23 Sur 30 Sur 0 1012 -2.2 48
2019-04-07 16:00:00 21.2 16 Sudeste 22 Sudeste 0 1012.5 -2.1 54
2019-04-07 15:00:00 20.7 10 Sudeste 17 Sudeste 0 1013.4 -1.2 56
2019-04-07 14:00:00 20.1 8 Sudeste 21 Sudeste 0 1014.2 -0.1 58
2019-04-07 13:00:00 19.9 13 Sur 24 Sudeste 0 1014.6 0.7 61
2019-04-07 12:00:00 20.9 14 Sur 21 Sur 0 1014.6 1.2 56
2019-04-07 11:00:00 20.1 11 Sur 18 Sur 0 1014.3 1.5 57
2019-04-07 10:00:00 19.4 3 Oeste 13 Noroeste 0 1013.9 1.4 58
2019-04-07 09:00:00 16.9 5 Norte 11 Norte 0 1013.4 1.4 66
2019-04-07 08:00:00 13.8 9 Noroeste 13 Norte 0 1012.8 0.9 76
2019-04-07 07:00:00 14.4 13 Norte 17 Norte 0 1012.5 0.2 73
2019-04-07 06:00:00 15.2 14 Norte 18 Norte 0 1012 -0.7 70
2019-04-07 05:00:00 15.8 14 Norte 24 Nordeste 0 1011.9 -1.1 68
2019-04-07 04:00:00 15.7 14 Nordeste 21 Nordeste 0 1012.3 -1.1 70
2019-04-07 03:00:00 15.5 10 Norte 18 Nordeste 0 1012.7 -1 74
2019-04-07 02:00:00 16.2 13 Nordeste -- -- -- 1013 -0.5 71
2019-04-07 01:00:00 16.7 14 Nordeste 21 Nordeste 0 1013.4 0.4 70
2019-04-07 00:00:00 17.2 13 Nordeste 18 Este 0 1013.7 1.3 70
2019-04-06 23:00:00 18.1 14 Este 24 Este 0 1013.5 1.4 67
2019-04-06 22:00:00 18.5 15 Este 26 Este 0 1013 1 64
2019-04-06 21:00:00 18.9 13 Este 22 Este 0 1012.4 0.7 59
2019-04-06 20:00:00 19.7 12 Sudeste 24 Sur 0 1012.1 0.2 56
2019-04-06 19:00:00 20.5 11 Sudoeste 18 Sudoeste 0 1012 -0.3 52
2019-04-06 18:00:00 20.5 10 Sur 22 Sur 0 1011.7 -1 52
2019-04-06 17:00:00 21.1 12 Sudeste 33 Sudeste 0 1011.9 -1 51
2019-04-06 16:00:00 22 14 Sur 28 Sur 0 1012.3 -0.6 48
2019-04-06 15:00:00 21.8 16 Sur 26 Sur 0 1012.7 -0.1 49
2019-04-06 14:00:00 21.8 16 Sur 32 Sudoeste 0 1012.9 0.6 52
2019-04-06 13:00:00 21.6 17 Sudoeste 26 Sudoeste 0 1012.9 0.9 53
2019-04-06 12:00:00 20.8 12 Sur 26 Sudeste 0 1012.8 1.3 54
2019-04-06 11:00:00 21.3 12 Sur 22 Sur 0 1012.3 1.4 52
2019-04-06 10:00:00 19.9 6 Norte 32 Noroeste 0 1012 1.7 55
2019-04-06 09:00:00 17.8 10 Noroeste 13 Norte 0 1011.5 1.7 65
2019-04-06 08:00:00 16.9 4 Oeste 21 Noroeste 0 1010.9 1.2 68
2019-04-06 07:00:00 17 10 Oeste 28 Noroeste 0 1010.3 0.4 66
2019-04-06 06:00:00 16.5 12 Noroeste 17 Oeste 0 1009.8 -0.5 69
2019-04-06 05:00:00 16.4 10 Oeste 21 Oeste 0 1009.7 -1.2 69
2019-04-06 04:00:00 17 10 Oeste 13 Oeste 0 1009.9 -1.2 69
2019-04-06 03:00:00 16.3 6 Noroeste 9 Norte 0 1010.3 -1.1 74
2019-04-06 02:00:00 16.8 7 Norte -- -- -- 1010.9 -0.4 72
2019-04-06 01:00:00 18.2 3 Sur 13 Sudoeste 0 1011.1 0.4 66
2019-04-06 00:00:00 18.1 9 Oeste 11 Oeste 0 1011.4 1.4 69
2019-04-05 23:00:00 18 5 Sudoeste 11 Sudoeste 0 1011.3 1.8 71
2019-04-05 22:00:00 18.1 5 Sudoeste 9 Sudoeste 0 1010.7 1.7 72
2019-04-05 21:00:00 18.5 8 Este 18 Este 0 1010 1.1 69
2019-04-05 20:00:00 19.5 13 Este 22 Este 0 1009.5 0.4 64
2019-04-05 19:00:00 20.9 15 Este 24 Este 0 1009 -0.8 59
2019-04-05 18:00:00 21.5 18 Sudeste 28 Sur 0 1008.9 -1.5 56
2019-04-05 17:00:00 21.8 18 Sur 28 Sur 0 1009.1 -1.8 54
2019-04-05 16:00:00 21.4 18 Sudoeste 26 Sur 0 1009.8 -1.1 55
2019-04-05 15:00:00 21 16 Sur 26 Sur 0 1010.4 -0.5 57
2019-04-05 14:00:00 21.7 15 Sur 26 Sur 0 1010.9 0.5 55
2019-04-05 13:00:00 21 16 Sur 28 Sur 0 1010.9 1.3 56
2019-04-05 12:00:00 21.2 21 Sur 33 Sur 0 1010.9 1.9 55
2019-04-05 11:00:00 20.5 19 Sur 32 Sur 0 1010.4 1.8 58
2019-04-05 10:00:00 19.6 18 Sudeste 26 Sudeste 0 1009.6 1.5 56
2019-04-05 09:00:00 17.9 8 Nordeste 13 Nordeste 0 1009 1.2 64
2019-04-05 08:00:00 15.9 7 Norte 26 Noroeste 0 1008.6 1 72
2019-04-05 07:00:00 16.6 12 Noroeste 30 Noroeste 0 1008.1 0.6 68
2019-04-05 06:00:00 16.3 13 Noroeste 30 Noroeste 0 1007.8 0.1 69
2019-04-05 05:00:00 15.6 13 Noroeste 15 Noroeste 0 1007.6 -0.5 74
2019-04-05 04:00:00 15.7 9 Noroeste 11 Noroeste 0 1007.5 -0.4 78
2019-04-05 03:00:00 16.5 4 Norte 18 Norte 0 1007.7 0.2 77
2019-04-05 02:00:00 17.4 5 Nordeste 22 Sur 0 1008.1 0.8 73
2019-04-05 01:00:00 17.6 12 Sur 24 Sur 0 1007.9 1 71
2019-04-05 00:00:00 17.7 14 Sudeste 22 Sudeste 0 1007.5 1.1 70
2019-04-04 23:00:00 18.1 16 Sudeste 28 Sur 0 1007.3 1.4 70
2019-04-04 22:00:00 18.3 13 Sur 26 Sudoeste 0 1006.9 1.4 68
2019-04-04 21:00:00 19.1 20 Sudoeste 28 Sudoeste 0 1006.4 1 66
2019-04-04 20:00:00 19.6 14 Sudoeste 24 Oeste 0 1005.9 0.6 60
2019-04-04 19:00:00 20.6 17 Sudoeste 24 Sudoeste 0 1005.5 0 59
2019-04-04 18:00:00 20.6 10 Sudoeste 21 Sur 0 1005.4 -0.5 57
2019-04-04 17:00:00 20.9 10 Sudeste 24 Sudoeste 0 1005.3 -0.9 59
2019-04-04 16:00:00 21.7 18 Sur 28 Sudoeste 0 1005.5 -0.7 59
2019-04-04 15:00:00 21.1 18 Sur 28 Sur 0 1005.9 -0.2 59
2019-04-04 14:00:00 21.1 18 Sur 26 Sur 0 1006.2 0.6 61
2019-04-04 13:00:00 20.1 16 Sudoeste 26 Sudoeste 0 1006.2 1.4 62
2019-04-04 12:00:00 20 15 Sudoeste 21 Sudoeste 0 1006.1 1.7 65
2019-04-04 11:00:00 20.1 8 Sur 15 Sur 0 1005.6 2 65
2019-04-04 10:00:00 18.3 9 Este 15 Norte 0 1004.8 1.6 67
2019-04-04 09:00:00 15.9 10 Norte 17 Norte 0 1004.4 1.4 63
2019-04-04 08:00:00 12.5 9 Norte 15 Norte 0 1003.6 0.8 78
2019-04-04 07:00:00 13.7 8 Norte 22 Noroeste 0 1003.2 0.4 74
2019-04-04 06:00:00 13.3 9 Noroeste 15 Oeste 0 1003 -0.4 77
2019-04-04 05:00:00 13.9 9 Norte 17 Oeste 0 1002.8 -1 66
2019-04-04 04:00:00 15.1 14 Oeste 22 Oeste 0 1002.8 -1.4 77
2019-04-04 03:00:00 15.4 13 Oeste 18 Oeste 0 1003.4 -1.1 65
2019-04-04 02:00:00 14.6 10 Noroeste 13 Noroeste 0 1003.8 -0.6 70
2019-04-04 01:00:00 15.5 9 Oeste 17 Norte 0 1004.2 0.6 63
2019-04-04 00:00:00 15.9 11 Norte 24 Norte 0 1004.5 1.7 63
2019-04-03 23:00:00 16.4 9 Noroeste 28 Noroeste 0 1004.4 1.9 63
2019-04-03 22:00:00 16.9 9 Norte 15 Norte 0 1003.6 1.2 68
2019-04-03 21:00:00 18.3 11 Norte 17 Nordeste 0 1002.8 0.3 64
2019-04-03 20:00:00 20 12 Nordeste 18 Este 0 1002.5 0 59
2019-04-03 19:00:00 19.7 12 Este 18 Este 0 1002.4 0 61
2019-04-03 18:00:00 19.7 9 Sudeste 22 Sudeste 0 1002.5 -0.5 60
2019-04-03 17:00:00 20.1 15 Sudeste 32 Este 0 1002.5 -0.6 59
2019-04-03 16:00:00 21.2 19 Este 32 Este 0 1002.4 -1.3 59
2019-04-03 15:00:00 20.6 17 Este 33 Este 0 1003 -0.9 61
2019-04-03 14:00:00 21.3 13 Este 42 Oeste 0 1003.1 -0.6 55
2019-04-03 13:00:00 23 28 Oeste 39 Oeste 0 1003.7 0.4 44
2019-04-03 12:00:00 20.7 7 Sudeste 18 Este 0 1003.9 0.8 65
2019-04-03 11:00:00 20.7 6 Este 13 Este 0 1003.7 1.1 60
2019-04-03 10:00:00 18.6 3 Sur 8 Sudoeste 0 1003.3 1.1 59
2019-04-03 09:00:00 15.9 3 Noroeste 13 Norte 0 1003.1 1 61
2019-04-03 08:00:00 13.3 5 Norte 15 Oeste 0 1002.6 0.3 79
2019-04-03 07:00:00 14.5 10 Oeste 21 Oeste 0 1002.2 -0.5 85
2019-04-03 06:00:00 14.8 14 Noroeste 18 Noroeste 0 1002.1 -0.9 84
2019-04-03 05:00:00 15.1 12 Noroeste 17 Noroeste 0 1002.3 -1.1 83
2019-04-03 04:00:00 15 13 Noroeste 15 Noroeste 0 1002.7 -1.3 84
2019-04-03 03:00:00 15.4 12 Norte 13 Noroeste 0 1003 -0.9 83
2019-04-03 02:00:00 16.1 9 Norte 11 Norte 0 1003.4 -0.4 83
2019-04-03 01:00:00 17 8 Norte 13 Norte 0 1004 1 78
2019-04-03 00:00:00 16.8 10 Nordeste 15 Nordeste 0 1003.9 1.7 81
2019-04-02 23:00:00 16.5 12 Nordeste 32 Norte 0 1003.8 2 85
2019-04-02 22:00:00 17.1 9 Nordeste 26 Nordeste 0 1003 1.4 84
2019-04-02 21:00:00 17.7 10 Este 22 Nordeste 0 1002.2 0.5 81
2019-04-02 20:00:00 19.4 6 Sur 18 Sur 0 1001.8 0.1 69
2019-04-02 19:00:00 20.2 14 Sur 21 Sur 0 1001.6 -0.8 66
2019-04-02 18:00:00 19.3 13 Sur 18 Sur 0 1001.7 -1.2 75
2019-04-02 17:00:00 20.3 11 Sudeste 18 Sudeste 0 1001.7 -1.7 73
2019-04-02 16:00:00 19.1 6 Noroeste 26 Sudoeste 0 1002.4 -1.2 75
2019-04-02 15:00:00 19.3 8 Este 24 Norte 0 1002.9 -1 73
2019-04-02 14:00:00 17.4 17 Nordeste 26 Nordeste 0 1003.4 -0.1 84
2019-04-02 13:00:00 18.3 5 Nordeste 28 Norte 0 1003.6 0.4 71
2019-04-02 12:00:00 16.3 12 Norte 30 Norte 8.7 1003.9 1.1 85
2019-04-02 11:00:00 16.2 19 Norte 26 Norte 2 1003.5 0.9 85
2019-04-02 10:00:00 16.2 10 Norte 21 Norte 1 1003.2 0.9 86
2019-04-02 09:00:00 16.4 14 Norte 21 Nordeste 0.3 1002.8 0.5 85
2019-04-02 08:00:00 16.1 13 Nordeste 22 Nordeste 0.3 1002.6 0.1 90
2019-04-02 07:00:00 16 16 Nordeste 26 Nordeste 0.3 1002.3 -0.4 89
2019-04-02 06:00:00 16 14 Nordeste 17 Nordeste 0.3 1002.3 -1 89
2019-04-02 05:00:00 16 6 Nordeste 15 Noroeste 1.1 1002.5 -1.5 89
2019-04-02 04:00:00 16.1 8 Norte 17 Norte 2.6 1002.7 -1.6 88
2019-04-02 03:00:00 16.2 13 Norte 18 Norte 5.4 1003.3 -1.6 91
2019-04-02 02:00:00 16.5 13 Nordeste 18 Nordeste 4.4 1004 -1.2 90
2019-04-02 01:00:00 17.3 11 Nordeste 18 Nordeste 0.5 1004.3 -0.5 83
2019-04-02 00:00:00 17.4 11 Nordeste 15 Nordeste 0 1004.9 0.4 82
2019-04-01 23:00:00 17.7 6 Nordeste 9 Este 0 1005.2 1.2 83
2019-04-01 22:00:00 17.6 8 Nordeste 22 Norte 0 1004.8 0.6 82
2019-04-01 21:00:00 17.6 8 Norte 26 Norte 0.7 1004.5 0.2 83
2019-04-01 20:00:00 18.5 14 Nordeste 26 Nordeste 0 1004 -0.3 72
2019-04-01 19:00:00 19.5 12 Sudeste 21 Sudeste 0 1004.2 -0.6 69
2019-04-01 18:00:00 19.9 13 Sudeste 26 Sudeste 0 1004.3 -1.2 66
2019-04-01 17:00:00 21.9 16 Sudeste 24 Sudeste 0 1004.3 -1.9 59
2019-04-01 16:00:00 20.5 14 Sudeste 28 Este 0 1004.8 -1.8 62
2019-04-01 15:00:00 22.1 17 Este 28 Este 0 1005.5 -1.8 57
2019-04-01 14:00:00 21.4 14 Sudeste 26 Sudeste 0 1006.2 -1.3 60
2019-04-01 13:00:00 21.5 16 Este 24 Sudeste 0 1006.6 -0.7 59
2019-04-01 12:00:00 21.4 18 Este 26 Este 0 1007.3 0.5 59
2019-04-01 11:00:00 20.2 10 Sudeste 17 Sur 0 1007.5 1 62
2019-04-01 10:00:00 19.3 4 Sudeste 9 Sudeste 0 1007.3 0.9 67
2019-04-01 09:00:00 17.5 6 Norte 22 Norte 0 1006.8 0.7 71
2019-04-01 08:00:00 15.1 10 Norte 13 Norte 0 1006.5 0.2 80
2019-04-01 07:00:00 15.7 11 Norte 28 Norte 0 1006.4 0 76
2019-04-01 06:00:00 16.6 5 Noroeste 11 Noroeste 0 1006.1 -0.8 73
2019-04-01 05:00:00 16.1 9 Noroeste 13 Norte 0 1006.3 -1.1 73
2019-04-01 04:00:00 16.2 8 Norte 13 Norte 0 1006.4 -1.6 77
2019-04-01 03:00:00 16.5 8 Norte 26 Norte 0 1006.9 -1.2 75
2019-04-01 02:00:00 16.2 10 Norte 11 Norte 0 1007.4 -0.8 73
2019-04-01 01:00:00 16.1 8 Norte 11 Norte 0 1008 0.4 73
2019-04-01 00:00:00 16.9 11 Norte 13 Norte 0 1008.1 0.8 72
2019-03-31 23:00:00 17.9 9 Nordeste -- -- -- 1008.2 0.9 69
2019-03-31 22:00:00 18.5 8 Nordeste 18 Nordeste 0 1007.6 0.5 67
2019-03-31 21:00:00 18.9 11 Este 26 Norte 0 1007.3 0.3 67
2019-03-31 20:00:00 19.3 8 Este 15 Este 0 1007.3 0.3 66
2019-03-31 19:00:00 19.4 12 Este 21 Este 0 1007.1 -0.5 66
2019-03-31 18:00:00 19.6 15 Este 22 Sudeste 0 1007 -0.8 67
2019-03-31 17:00:00 19.9 11 Este 17 Sudeste 0 1007 -1.3 65
2019-03-31 16:00:00 20.1 12 Sudeste 17 Sudeste 0 1007.6 -0.9 63
2019-03-31 15:00:00 20.6 9 Sudeste 26 Sudeste 0 1007.8 -1 60
2019-03-31 14:00:00 21.9 17 Sudeste 28 Sudeste 0 1008.3 -0.9 56
2019-03-31 13:00:00 21.3 15 Sudeste 26 Sudeste 0 1008.5 -0.3 56
2019-03-31 12:00:00 20.8 18 Sudeste 22 Sudeste 0 1008.8 0.8 58
2019-03-31 11:00:00 20.7 9 Sudeste 13 Sudeste 0 1009.2 1.4 57
2019-03-31 10:00:00 19.4 3 Este 13 Norte 0 1008.8 1.4 61
2019-03-31 09:00:00 16.5 11 Norte 30 Norte 0 1008 0.8 68
2019-03-31 08:00:00 13.3 11 Norte 22 Norte 0 1007.8 0.4 80
2019-03-31 07:00:00 13.6 10 Norte 28 Norte 0 1007.4 -0.9 80
2019-03-31 06:00:00 14.1 13 Norte 17 Norte 0 1007.2 -1.9 77
2019-03-31 05:00:00 14.2 15 Norte 18 Norte 0 1007.4 -2.2 76
2019-03-31 04:00:00 13.9 12 Noroeste 17 Noroeste 0 1008.3 -1.4 78
2019-03-31 00:00:00 15.2 10 Norte 15 Norte 0 1009.7 0.1 73
2019-03-30 23:00:00 15.7 11 Norte 13 Norte 0 1009.8 0.8 72
2019-03-30 22:00:00 16.1 6 Norte 15 Norte 0 1010 1.4 73
2019-03-30 21:00:00 17 3 Norte 28 Noroeste 0 1009.6 1.2 70
2019-03-30 20:00:00 17.6 0 Calma 9 Sur 0 1009 0.6 67
2019-03-30 19:00:00 18.9 8 Sur 13 Sudoeste 0 1008.6 0.3 63
2019-03-30 18:00:00 19.6 7 Sudoeste 13 Sudoeste 0 1008.4 0.2 58
2019-03-30 17:00:00 19 7 Sudeste 15 Sudeste 0 1008.4 -0.2 60
2019-03-30 16:00:00 18.9 10 Sudeste 24 Este 0 1008.3 -0.7 59
2019-03-30 15:00:00 20.2 17 Sudeste 26 Este 0 1008.2 -1 56
2019-03-30 14:00:00 19.9 17 Este 24 Este 0 1008.6 -0.3 59
2019-03-30 13:00:00 18.8 14 Este 24 Este 0.2 1009 0.2 70
2019-03-30 12:00:00 19.8 17 Sudeste 26 Sudeste 0 1009.2 1 61
2019-03-30 11:00:00 20.2 15 Este 24 Sudeste 0 1008.9 1.2 60
2019-03-30 10:00:00 20.3 13 Sudeste 21 Este 0 1008.8 1.7 56
2019-03-30 09:00:00 19.4 8 Este 22 Nordeste 0 1008.2 1.6 61
2019-03-30 08:00:00 17.6 11 Norte 21 Norte 0 1007.7 1.4 65
2019-03-30 07:00:00 15.3 15 Norte 21 Norte 0 1007.1 0.5 72
2019-03-30 06:00:00 14.6 13 Norte 17 Nordeste 0 1006.6 -0.5 73
2019-03-30 05:00:00 14.2 6 Norte 15 Noroeste 0 1006.3 -1.3 72
2019-03-30 04:00:00 15.1 12 Noroeste 17 Noroeste 0 1006.6 -1.5 69
2019-03-30 03:00:00 15.3 12 Noroeste 15 Norte 0 1007.1 -1.4 68
2019-03-30 02:00:00 15.4 12 Noroeste 15 Noroeste 0 1007.6 -0.9 66
2019-03-30 01:00:00 16.2 9 Norte 26 Nordeste 0 1008.1 -0.2 65
2019-03-30 00:00:00 16.4 11 Norte 15 Norte 0 1008.5 0.6 62
2019-03-29 23:00:00 17 11 Norte 21 Norte 0 1008.5 1.6 60
2019-03-29 22:00:00 18.1 9 Norte 33 Norte 0 1008.3 1.8 57
2019-03-29 21:00:00 18.1 10 Nordeste 26 Este 0 1007.9 2.1 62
2019-03-29 20:00:00 19.1 15 Nordeste 26 Nordeste 0 1006.9 1 58
2019-03-29 19:00:00 20.6 15 Nordeste 45 Oeste 0 1006.5 0.4 54
2019-03-29 18:00:00 21.6 34 Oeste 50 Oeste 0 1005.8 -0.8 44
2019-03-29 17:00:00 22.9 32 Oeste 45 Oeste 0 1005.9 -1.2 31
2019-03-29 16:00:00 23 28 Sudoeste 42 Oeste 0 1006.1 -2.2 41
2019-03-29 15:00:00 23.3 28 Sudoeste 42 Oeste 0 1006.6 -2.3 44
2019-03-29 14:00:00 22.3 31 Sudoeste 42 Sudoeste 0 1007.1 -2.1 55
2019-03-29 13:00:00 21.3 18 Sudoeste 26 Sudoeste 0 1008.3 -0.8 57
2019-03-29 12:00:00 21.3 15 Sur 22 Sur 0 1008.9 0.1 61
2019-03-29 11:00:00 19.1 7 Sudoeste 21 Este 0 1009.2 0.8 72
2019-03-29 10:00:00 21.2 9 Sudeste 18 Sudeste 0 1009.1 1 60
2019-03-29 09:00:00 19.6 6 Este 26 Norte 0 1008.8 1.1 66
2019-03-29 08:00:00 16.8 8 Norte 15 Norte 0 1008.4 0.9 72
2019-03-29 07:00:00 14.7 12 Norte 21 Nordeste 0 1008.1 0.5 78
2019-03-29 06:00:00 15 13 Norte 32 Norte 0 1007.7 -0.1 77
2019-03-29 05:00:00 14.9 12 Norte 13 Norte 0 1007.5 -0.7 79
2019-03-29 04:00:00 15.2 9 Norte 13 Norte 0 1007.6 -1.3 79
2019-03-29 03:00:00 15.7 9 Norte 28 Nordeste 0 1007.8 -1.4 77
2019-03-29 02:00:00 16.3 10 Norte 13 Norte 0 1008.2 -1.2 78
2019-03-29 01:00:00 17.1 9 Norte 17 Norte 0 1008.9 -0.5 76
2019-03-29 00:00:00 17.4 12 Nordeste 15 Norte 0 1009.2 0.1 76
2019-03-28 23:00:00 17.5 12 Nordeste 15 Nordeste 0 1009.4 0.6 75
2019-03-28 22:00:00 17.6 10 Nordeste 32 Nordeste 0 1009.4 1 75
2019-03-28 21:00:00 18.1 11 Nordeste 18 Este 0 1009.1 1.1 72
2019-03-28 20:00:00 18.4 14 Este 22 Este 0 1008.8 1 72
2019-03-28 19:00:00 18.9 16 Este 22 Este 0 1008.4 0.6 69
2019-03-28 18:00:00 19.7 15 Este 24 Este 0 1008 -0.2 65
2019-03-28 17:00:00 21 14 Este 24 Este 0 1007.8 -0.9 61
2019-03-28 16:00:00 20.4 12 Este 24 Este 0 1007.8 -1.3 61
2019-03-28 15:00:00 20.9 13 Sudeste 26 Sudeste 0 1008.2 -1.3 60
2019-03-28 14:00:00 21.9 18 Sudeste 30 Sudeste 0 1008.7 -0.9 59
2019-03-28 13:00:00 21.8 17 Este 32 Este 0 1009.1 -0.2 59
2019-03-28 12:00:00 21.4 18 Este 30 Este 0 1009.5 0 60
2019-03-28 11:00:00 20.9 21 Este 30 Este 0 1009.6 0.7 63
2019-03-28 10:00:00 20.4 14 Este 24 Este 0 1009.3 0.8 62
2019-03-28 09:00:00 19.5 13 Nordeste 21 Nordeste 0 1009.5 1.3 64
2019-03-28 08:00:00 17.4 12 Norte 17 Nordeste 0 1008.9 1 69
2019-03-28 07:00:00 15.9 12 Norte 18 Norte 0 1008.5 0.6 75
2019-03-28 06:00:00 16 11 Norte 17 Norte 0 1008.2 0.2 76
2019-03-28 05:00:00 16.5 13 Nordeste 17 Norte 0 1007.9 -0.4 75
2019-03-28 04:00:00 17.1 10 Nordeste 17 Nordeste 0 1007.9 -0.6 77
2019-03-28 03:00:00 17.6 14 Nordeste 22 Nordeste 0 1008 -0.7 75
2019-03-28 02:00:00 17.8 11 Este 24 Este 0 1008.3 -0.5 76
2019-03-28 01:00:00 17.9 15 Este 30 Este 0 1008.5 -0.1 77
2019-03-28 00:00:00 18.1 16 Este 24 Este 0 1008.7 0.7 75
2019-03-27 23:00:00 18.6 14 Este 22 Este 0 1008.8 1.4 72
2019-03-27 22:00:00 18.5 15 Este 24 Este 0 1008.6 1.6 74
2019-03-27 21:00:00 19 14 Este 21 Este 0 1008 1.3 72
2019-03-27 20:00:00 19.2 14 Este 21 Sudeste 0 1007.4 1.1 72
2019-03-27 19:00:00 19.4 14 Este 22 Sudeste 0 1007 0.7 69
2019-03-27 18:00:00 20.1 13 Sudeste 22 Sudeste 0 1006.7 0.3 67
2019-03-27 17:00:00 21.2 17 Este 26 Este 0 1006.3 -0.4 65
2019-03-27 16:00:00 22.5 14 Sudeste 30 Este 0 1006.3 -0.9 56
2019-03-27 15:00:00 22.4 18 Este 26 Sudeste 0 1006.4 -1 58
2019-03-27 14:00:00 22.6 15 Sudeste 28 Sudeste 0 1006.7 -0.8 58
2019-03-27 13:00:00 22.3 17 Sudeste 26 Este 0 1007.2 0.3 61
2019-03-27 12:00:00 21.4 14 Sudeste 24 Sudeste 0 1007.4 1.2 67
2019-03-27 11:00:00 21.6 15 Sudeste 22 Sudeste 0 1007.5 1.9 65
2019-03-27 10:00:00 21 10 Sudeste 17 Sur 0 1006.9 1.9 67
2019-03-27 09:00:00 20 4 Sudoeste 13 Norte 0 1006.2 2 69
2019-03-27 08:00:00 16.7 10 Norte 28 Noroeste 0 1005.6 1.9 71
2019-03-27 07:00:00 15.2 12 Norte 30 Noroeste 0 1005 1.5 79
2019-03-27 06:00:00 15 16 Noroeste 18 Noroeste 0 1004.2 0.3 80
2019-03-27 05:00:00 15.1 14 Noroeste 17 Noroeste 0 1003.7 -0.3 78
2019-03-27 04:00:00 15.7 12 Noroeste 17 Oeste 0 1003.5 -0.6 77
2019-03-27 03:00:00 16.1 13 Noroeste 17 Oeste 0 1003.9 -0.2 77
2019-03-27 02:00:00 15.7 14 Noroeste 17 Noroeste 0 1004 0.2 74
2019-03-27 01:00:00 15.7 13 Norte 15 Norte 0 1004.1 0.6 78
2019-03-27 00:00:00 16.2 10 Norte 15 Norte 0 1004.1 1.2 77
2019-03-26 23:00:00 16.9 12 Nordeste 18 Norte 0 1003.8 1.7 75
2019-03-26 22:00:00 17.2 13 Nordeste 30 Nordeste 0 1003.5 2.2 72
2019-03-26 21:00:00 17.7 12 Nordeste 21 Norte 0 1002.9 1.9 69
2019-03-26 20:00:00 18.4 6 Nordeste 13 Nordeste 0 1002.1 1.6 71
2019-03-26 19:00:00 19.5 4 Sudeste 9 Sur 0 1001.3 1.2 64
2019-03-26 18:00:00 19.8 6 Sur 17 Sudoeste 0 1001 1 63
2019-03-26 17:00:00 20.4 10 Sudoeste 18 Sur 0 1000.5 0.2 60
2019-03-26 16:00:00 20.4 10 Sur 15 Sudoeste 0 1000.1 -0.4 57
2019-03-26 15:00:00 20.6 13 Sudoeste 21 Sudoeste 0 1000 -0.8 59
2019-03-26 14:00:00 21.7 12 Sur 21 Sur 0 1000.3 -0.7 56
2019-03-26 13:00:00 21.4 12 Sur 21 Sur 0 1000.5 0 60
2019-03-26 12:00:00 20.4 9 Sur 18 Sur 0 1000.8 0.9 64
2019-03-26 11:00:00 19.9 9 Sudeste 18 Sudeste 0 1001 2 63
2019-03-26 10:00:00 19.2 9 Sudeste 17 Sudeste 0 1000.5 2.2 66
2019-03-26 09:00:00 18.4 7 Este 11 Este 0 999.9 1.8 69
2019-03-26 08:00:00 15.1 8 Norte 18 Norte 0 999 1.5 73
2019-03-26 07:00:00 13.5 16 Norte 21 Norte 0 998.3 0.6 77
2019-03-26 06:00:00 13 12 Nordeste 33 Sur 0 998.1 0 85
2019-03-26 05:00:00 13 14 Norte 17 Norte 0 997.5 -1.1 85
2019-03-26 04:00:00 12.9 8 Norte 9 Norte 0 997.7 -1.2 86
2019-03-26 03:00:00 13.5 5 Norte 15 Noroeste 0 998.1 -1 84
2019-03-26 02:00:00 13.5 11 Noroeste 26 Norte 0 998.6 -0.6 83
2019-03-26 01:00:00 14.4 11 Norte 17 Norte 0 998.9 -0.1 81
2019-03-26 00:00:00 14.4 12 Norte 17 Norte 0 999.1 0.4 83
2019-03-25 23:00:00 14.2 10 Norte 13 Norte 0 999.2 1.2 87
2019-03-25 22:00:00 14.9 8 Nordeste 13 Norte 0 999 1 87
2019-03-25 21:00:00 15.4 10 Este 18 Nordeste 0 998.7 1.2 88
2019-03-25 20:00:00 16 14 Nordeste 21 Norte 0 998 0.4 87
2019-03-25 19:00:00 16.5 14 Este 21 Nordeste 0 998 0.6 82
2019-03-25 18:00:00 16.6 15 Nordeste 26 Este 0 997.5 -0.4 81
2019-03-25 17:00:00 17.4 19 Este 28 Este 0 997.6 -1.3 76
2019-03-25 16:00:00 18.4 19 Este 26 Este 0 997.4 -2.7 69
2019-03-25 15:00:00 18.6 3 Este 17 Este 0 997.9 -3 63
2019-03-25 14:00:00 17.7 5 Este 18 Nordeste 0 998.9 -2.1 69
2019-03-25 13:00:00 16.1 12 Nordeste 24 Norte 3.4 1000.1 -0.8 84
2019-03-25 12:00:00 16.5 4 Este 32 Noroeste 1.1 1000.9 0.1 83
2019-03-25 11:00:00 17.2 5 Noroeste 21 Nordeste 0.1 1001 0.6 71
2019-03-25 10:00:00 16.7 9 Noroeste 22 Norte 0.2 1000.9 0.9 78
2019-03-25 09:00:00 15.4 15 Norte 22 Norte 4.7 1000.8 0.8 87
2019-03-25 08:00:00 16.8 0 Calma 15 Nordeste 0.6 1000.4 0.3 80
2019-03-25 07:00:00 16.6 11 Norte 15 Norte 0 1000 -0.5 76
2019-03-25 06:00:00 16.3 10 Nordeste 11 Nordeste 0 1000 -1 76
2019-03-25 05:00:00 16.7 6 Sudeste 13 Sudeste 0 1000.1 -1.5 75
2019-03-25 04:00:00 16.9 2 Sudeste 9 Sudeste 0 1000.5 -1.2 74
2019-03-25 03:00:00 16.9 5 Este 11 Nordeste 0 1001 -1.4 72
2019-03-25 02:00:00 17.1 8 Nordeste -- -- 0 1001.6 -1.3 71
2019-03-25 01:00:00 -- 8 Norte 11 Nordeste 0 1001.7 -1.3 --
2019-03-25 00:00:00 16.3 5 Norte 18 Norte 0 1002.4 -0.5 72